Time;durP1;ratioP1;P1;durP2;ratioP2;P2;SDS_P1;SDS_P2;PMS_P1;PMS_P2;Temp;Humidity;BMP_temperature;BMP_pressure;BME280_temperature;BME280_humidity;BME280_pressure;Samples;Min_cycle;Max_cycle;Signal;HPM_P1;HPM_P2
2021/09/12 00:02:16;;;;;;;;;16.75;15.75;;;;;19.19;100.00;101695.25;4997859;28;45454;-77
2021/09/12 00:04:41;;;;;;;;;20.75;16.25;;;;;19.25;100.00;101708.28;4996499;28;46548;-76
2021/09/12 00:07:06;;;;;;;;;16.75;15.25;;;;;19.24;100.00;101709.22;4980050;28;45503;-77
2021/09/12 00:09:32;;;;;;;;;17.75;16.50;;;;;19.16;100.00;101697.13;4996728;28;45451;-77
2021/09/12 00:11:58;;;;;;;;;20.75;16.50;;;;;19.22;100.00;101716.31;4996951;28;45383;-78
2021/09/12 00:14:23;;;;;;;;;22.00;17.00;;;;;19.21;100.00;101706.63;5009638;28;45727;-77
2021/09/12 00:16:49;;;;;;;;;19.50;18.50;;;;;19.19;100.00;101703.19;4997507;28;45470;-79
2021/09/12 00:19:14;;;;;;;;;20.25;18.00;;;;;19.15;100.00;101704.22;4996736;28;45395;-77
2021/09/12 00:21:40;;;;;;;;;17.50;16.00;;;;;19.23;100.00;101704.81;4996528;28;45387;-76
2021/09/12 00:24:05;;;;;;;;;15.25;12.00;;;;;19.17;100.00;101694.44;4997644;28;45598;-77
2021/09/12 00:26:30;;;;;;;;;21.25;18.75;;;;;19.15;100.00;101696.28;4996368;28;45463;-78
2021/09/12 00:28:56;;;;;;;;;18.50;16.75;;;;;19.19;100.00;101695.25;4996403;28;45400;-78
2021/09/12 00:31:21;;;;;;;;;19.00;18.25;;;;;19.25;100.00;101715.38;4978852;28;45479;-78
2021/09/12 00:33:47;;;;;;;;;20.00;17.75;;;;;19.19;100.00;101705.84;4996204;28;46603;-77
2021/09/12 00:36:12;;;;;;;;;18.25;16.75;;;;;19.16;100.00;101702.44;5002004;28;45415;-78
2021/09/12 00:38:38;;;;;;;;;19.00;16.25;;;;;19.06;100.00;101701.91;4996431;28;45498;-77
2021/09/12 00:41:03;;;;;;;;;19.25;18.50;;;;;19.03;100.00;101707.28;5002801;28;45576;-78
2021/09/12 00:43:29;;;;;;;;;18.75;16.50;;;;;18.97;100.00;101711.00;5013818;28;45371;-76
2021/09/12 00:45:56;;;;;;;;;19.75;18.50;;;;;18.91;100.00;101691.81;5007461;28;45165;-78
2021/09/12 00:48:23;;;;;;;;;19.75;16.50;;;;;18.85;100.00;101692.03;5004776;28;45343;-78
2021/09/12 00:50:49;;;;;;;;;19.00;17.00;;;;;18.85;100.00;101694.69;5022316;28;45791;-74
2021/09/12 00:53:16;;;;;;;;;17.75;16.75;;;;;18.89;100.00;101702.47;5022198;28;45533;-76
2021/09/12 00:55:43;;;;;;;;;11.00;10.25;;;;;18.88;100.00;101698.09;5023568;28;45473;-77
2021/09/12 00:58:13;;;;;;;;;20.25;16.75;;;;;18.85;100.00;101692.03;5022501;28;45339;-73
2021/09/12 01:00:39;;;;;;;;;16.75;15.25;;;;;18.86;100.00;101696.41;5022573;28;45310;-78
2021/09/12 01:03:04;;;;;;;;;19.25;17.50;;;;;18.80;100.00;101692.19;5022063;28;45572;-79
2021/09/12 01:05:29;;;;;;;;;15.50;14.00;;;;;18.72;100.00;101685.41;5022092;28;45246;-77
2021/09/12 01:07:55;;;;;;;;;17.75;17.25;;;;;18.69;100.00;101675.78;5034947;28;45403;-78
2021/09/12 01:10:20;;;;;;;;;13.50;12.50;;;;;18.71;100.00;101692.47;5023427;28;45675;-77
2021/09/12 01:12:46;;;;;;;;;15.75;15.00;;;;;18.67;100.00;101686.41;5022074;28;45506;-78
2021/09/12 01:15:11;;;;;;;;;18.25;16.25;;;;;18.63;100.00;101682.16;5031476;28;45424;-74
2021/09/12 01:17:37;;;;;;;;;16.00;15.00;;;;;18.60;100.00;101682.22;5027324;28;45421;-77
2021/09/12 01:20:03;;;;;;;;;18.00;16.25;;;;;18.56;100.00;101683.25;5028033;28;45425;-78
2021/09/12 01:22:29;;;;;;;;;16.00;14.50;;;;;18.37;100.00;101653.00;5021376;28;45554;-77
2021/09/12 01:24:54;;;;;;;;;17.75;16.00;;;;;18.48;100.00;101671.16;5023346;28;45318;-78
2021/09/12 01:27:20;;;;;;;;;19.00;18.25;;;;;18.46;100.00;101673.84;5021846;28;45318;-78
2021/09/12 01:29:46;;;;;;;;;18.25;16.25;;;;;18.48;100.00;101673.81;5008257;28;45559;-78
2021/09/12 01:32:12;;;;;;;;;19.25;17.75;;;;;18.44;100.00;101675.69;5023130;28;46630;-78
2021/09/12 01:34:37;;;;;;;;;18.25;16.25;;;;;18.39;100.00;101676.75;5031317;28;45379;-76
2021/09/12 01:37:03;;;;;;;;;20.75;19.25;;;;;18.29;100.00;101676.16;5033618;28;45797;-78
2021/09/12 01:39:28;;;;;;;;;18.75;18.25;;;;;18.25;100.00;101677.19;5025194;28;45350;-78
2021/09/12 01:41:54;;;;;;;;;16.00;14.75;;;;;18.18;100.00;101673.00;5036632;28;45582;-76
2021/09/12 01:44:24;;;;;;;;;22.00;18.00;;;;;18.16;100.00;101674.81;5022714;28;45400;-77
2021/09/12 01:46:50;;;;;;;;;20.25;18.50;;;;;18.09;100.00;101676.78;5030241;28;45215;-77
2021/09/12 01:49:16;;;;;;;;;18.75;17.25;;;;;18.05;100.00;101676.00;5035387;28;45331;-77
2021/09/12 01:51:42;;;;;;;;;20.25;18.00;;;;;18.04;100.00;101676.91;5021331;28;45283;-77
2021/09/12 01:54:07;;;;;;;;;16.00;14.00;;;;;17.97;100.00;101671.88;5031224;28;45540;-78
2021/09/12 01:56:33;;;;;;;;;18.75;15.50;;;;;17.99;100.00;101675.34;5007164;28;45478;-78
2021/09/12 01:58:58;;;;;;;;;24.00;19.50;;;;;17.87;100.00;101668.63;5028734;28;45518;-77
2021/09/12 02:01:23;;;;;;;;;17.75;15.50;;;;;17.93;100.00;101675.53;5040702;28;45338;-79
2021/09/12 02:03:49;;;;;;;;;14.00;13.00;;;;;17.95;100.00;101681.63;5034347;28;45285;-79
2021/09/12 02:06:15;;;;;;;;;14.50;12.75;;;;;17.94;100.00;101682.53;5032404;28;45338;-74
2021/09/12 02:08:40;;;;;;;;;15.25;15.00;;;;;17.93;100.00;101688.75;5030469;28;45272;-72
2021/09/12 02:11:06;;;;;;;;;14.00;12.25;;;;;17.89;100.00;101685.31;5013057;28;46963;-78
2021/09/12 02:13:31;;;;;;;;;11.00;10.00;;;;;17.83;100.00;101682.84;5039297;28;45347;-77
2021/09/12 02:15:57;;;;;;;;;11.00;10.25;;;;;17.78;100.00;101687.41;5031475;28;45473;-78
2021/09/12 02:18:22;;;;;;;;;15.50;12.75;;;;;17.71;100.00;101680.56;5033607;28;44747;-76
2021/09/12 02:20:47;;;;;;;;;12.00;12.00;;;;;17.71;100.00;101691.13;5047760;28;46101;-72
2021/09/12 02:23:13;;;;;;;;;14.75;11.00;;;;;17.64;100.00;101694.81;5022832;28;45429;-77
2021/09/12 02:25:38;;;;;;;;;10.50;9.50;;;;;17.58;100.00;101693.22;5026720;28;45309;-73
2021/09/12 02:28:04;;;;;;;;;13.00;13.00;;;;;17.55;100.00;101693.31;5023607;28;45354;-78
2021/09/12 02:30:30;;;;;;;;;13.00;11.50;;;;;17.53;100.00;101695.13;5019556;28;46664;-76
2021/09/12 02:32:55;;;;;;;;;12.00;11.00;;;;;17.51;100.00;101701.34;5028380;28;45432;-78
2021/09/12 02:35:21;;;;;;;;;12.00;12.00;;;;;17.47;100.00;101695.28;5021752;28;45397;-79
2021/09/12 02:37:46;;;;;;;;;14.50;13.50;;;;;17.42;100.00;101705.09;5020386;28;45401;-78
2021/09/12 02:40:12;;;;;;;;;12.75;11.75;;;;;17.34;100.00;101694.75;5019481;28;45389;-79
2021/09/12 02:42:38;;;;;;;;;13.00;9.25;;;;;17.39;100.00;101706.03;5018713;28;45665;-79
2021/09/12 02:45:06;;;;;;;;;11.50;11.50;;;;;17.39;100.00;101706.03;5018018;28;45450;-79
2021/09/12 02:47:31;;;;;;;;;10.25;9.00;;;;;17.37;100.00;101696.44;5018528;28;45295;-79
2021/09/12 02:49:57;;;;;;;;;12.25;9.00;;;;;17.33;100.00;101698.31;5017572;28;45414;-79
2021/09/12 02:52:22;;;;;;;;;12.25;11.00;;;;;17.33;100.00;101694.78;5017872;28;45301;-78
2021/09/12 02:54:48;;;;;;;;;9.75;8.50;;;;;17.23;100.00;101681.00;5028593;28;45453;-79
2021/09/12 02:57:13;;;;;;;;;14.00;10.50;;;;;17.31;100.00;101693.97;5018284;28;45421;-79
2021/09/12 02:59:38;;;;;;;;;11.50;10.00;;;;;17.29;100.00;101701.94;5017956;28;45575;-79
2021/09/12 03:02:04;;;;;;;;;14.25;11.75;;;;;17.26;100.00;101695.88;5017361;28;45223;-79
2021/09/12 03:04:29;;;;;;;;;9.75;9.00;;;;;17.25;100.00;101694.16;5018934;28;45223;-79
2021/09/12 03:06:54;;;;;;;;;14.00;10.75;;;;;17.17;100.00;101674.97;5017972;28;45396;-79
2021/09/12 03:09:20;;;;;;;;;12.75;11.00;;;;;17.21;100.00;101684.59;5017148;28;46120;-79
2021/09/12 03:11:45;;;;;;;;;12.00;10.75;;;;;17.25;100.00;101692.38;5017793;28;45449;-79
2021/09/12 03:14:11;;;;;;;;;14.00;10.00;;;;;17.20;100.00;101686.34;5017655;28;45694;-74
2021/09/12 03:16:37;;;;;;;;;16.00;14.75;;;;;17.24;100.00;101690.63;5027440;28;45172;-79
2021/09/12 03:19:02;;;;;;;;;12.00;10.75;;;;;17.13;100.00;101674.22;5026165;28;46341;-79
2021/09/12 03:21:28;;;;;;;;;10.75;10.50;;;;;17.23;100.00;101695.97;5009800;28;45422;-76
2021/09/12 03:23:53;;;;;;;;;14.50;12.25;;;;;17.20;100.00;101691.63;5024375;28;45453;-78
2021/09/12 03:26:18;;;;;;;;;14.25;13.25;;;;;17.16;100.00;101684.69;5025442;28;45426;-77
2021/09/12 03:28:44;;;;;;;;;14.00;11.25;;;;;17.14;100.00;101683.84;5023428;28;46275;-77
2021/09/12 03:31:10;;;;;;;;;14.25;11.00;;;;;17.11;100.00;101687.44;5027524;28;45441;-78
2021/09/12 03:33:35;;;;;;;;;12.50;10.50;;;;;17.03;100.00;101673.59;5025455;28;45338;-77
2021/09/12 03:36:01;;;;;;;;;11.25;11.00;;;;;17.05;100.00;101677.06;5024204;28;45598;-77
2021/09/12 03:38:26;;;;;;;;;14.25;13.00;;;;;17.07;100.00;101687.56;5016938;28;46323;-78
2021/09/12 03:40:51;;;;;;;;;12.00;11.25;;;;;17.01;100.00;101674.53;5023720;28;45517;-78
2021/09/12 03:43:17;;;;;;;;;14.25;12.00;;;;;17.07;100.00;101677.00;5016525;28;45436;-78
2021/09/12 03:45:42;;;;;;;;;13.00;10.50;;;;;17.03;100.00;101676.22;5017271;28;45412;-77
2021/09/12 03:48:08;;;;;;;;;13.25;10.25;;;;;17.05;100.00;101682.34;5022876;28;46007;-78
2021/09/12 03:50:33;;;;;;;;;11.75;10.75;;;;;17.01;100.00;101675.41;5027227;28;45337;-78
2021/09/12 03:52:59;;;;;;;;;12.00;9.00;;;;;17.06;100.00;101681.44;5017080;28;45463;-78
2021/09/12 03:55:24;;;;;;;;;12.50;12.00;;;;;17.02;100.00;101671.88;5017106;28;45489;-79
2021/09/12 03:57:50;;;;;;;;;10.50;10.25;;;;;17.15;100.00;101686.44;5022009;28;46604;-78
2021/09/12 04:00:17;;;;;;;;;11.75;10.00;;;;;17.12;100.00;101680.38;5025319;28;45334;-78
2021/09/12 04:02:43;;;;;;;;;15.25;11.25;;;;;17.14;100.00;101674.16;5020282;28;45401;-78
2021/09/12 04:05:08;;;;;;;;;12.00;10.75;;;;;17.08;100.00;101658.50;5002094;28;45449;-77
2021/09/12 04:07:34;;;;;;;;;13.00;10.25;;;;;17.19;100.00;101675.81;5022135;28;45467;-78
2021/09/12 04:10:00;;;;;;;;;14.25;13.75;;;;;17.17;100.00;101672.34;5019375;28;45398;-78
2021/09/12 04:12:25;;;;;;;;;13.00;12.75;;;;;17.13;100.00;101671.56;5022045;28;45532;-75
2021/09/12 04:14:53;;;;;;;;;13.25;12.75;;;;;17.09;100.00;101673.44;5018964;28;45317;-75
2021/09/12 04:17:18;;;;;;;;;10.50;10.00;;;;;17.04;100.00;101661.28;5021514;28;45220;-77
2021/09/12 04:19:44;;;;;;;;;13.00;11.50;;;;;17.05;100.00;101670.91;5019459;28;45305;-77
2021/09/12 04:22:09;;;;;;;;;10.75;10.75;;;;;16.96;100.00;101653.53;5019530;28;45268;-77
2021/09/12 04:24:34;;;;;;;;;10.75;10.25;;;;;16.97;100.00;101662.31;5004542;28;45472;-78
2021/09/12 04:27:00;;;;;;;;;8.00;5.00;;;;;16.96;100.00;101666.72;5019178;28;46442;-78
2021/09/12 04:29:25;;;;;;;;;10.50;10.50;;;;;16.90;100.00;101660.75;5019923;28;45348;-78
2021/09/12 04:31:50;;;;;;;;;10.00;9.50;;;;;16.91;100.00;101665.13;5018866;28;45472;-75
2021/09/12 04:34:16;;;;;;;;;11.00;9.75;;;;;16.91;100.00;101663.34;5018226;28;45386;-78
2021/09/12 04:36:41;;;;;;;;;14.75;13.00;;;;;16.90;100.00;101664.25;5016646;28;45989;-76
2021/09/12 04:39:07;;;;;;;;;15.25;12.25;;;;;16.92;100.00;101661.56;5019073;28;45355;-78
2021/09/12 04:41:33;;;;;;;;;13.50;10.00;;;;;16.94;100.00;101665.91;5020145;28;45649;-78
2021/09/12 04:43:58;;;;;;;;;11.75;11.50;;;;;16.95;100.00;101666.75;5016850;28;45392;-77
2021/09/12 04:46:24;;;;;;;;;12.75;10.50;;;;;16.94;100.00;101670.31;5016683;28;46578;-79
2021/09/12 04:48:49;;;;;;;;;13.50;10.00;;;;;16.92;100.00;101670.34;4999320;28;45443;-78
2021/09/12 04:51:15;;;;;;;;;9.00;8.25;;;;;16.97;100.00;101672.88;5018070;28;45472;-78
2021/09/12 04:53:40;;;;;;;;;11.50;11.25;;;;;16.94;100.00;101672.94;5017754;28;45460;-78
2021/09/12 04:56:05;;;;;;;;;11.00;10.00;;;;;16.93;100.00;101671.22;5016596;28;47357;-79
2021/09/12 04:58:31;;;;;;;;;12.50;11.00;;;;;16.93;100.00;101668.56;5016443;28;45551;-78
2021/09/12 05:00:56;;;;;;;;;10.25;10.00;;;;;16.92;100.00;101670.34;5015290;28;45489;-78
2021/09/12 05:03:22;;;;;;;;;10.00;10.00;;;;;16.95;100.00;101677.31;5017572;28;45710;-79
2021/09/12 05:05:48;;;;;;;;;9.75;9.00;;;;;16.94;100.00;101675.59;5017123;28;45560;-78
2021/09/12 05:08:13;;;;;;;;;11.00;10.50;;;;;16.96;100.00;101679.06;5016297;28;45373;-78
2021/09/12 05:10:38;;;;;;;;;11.25;10.00;;;;;16.96;100.00;101679.06;5017369;28;45450;-78
2021/09/12 05:13:04;;;;;;;;;11.00;9.00;;;;;16.98;100.00;101682.53;5017706;28;45386;-78
2021/09/12 05:15:29;;;;;;;;;10.00;9.75;;;;;16.96;100.00;101677.28;5016773;28;47207;-79
2021/09/12 05:17:55;;;;;;;;;12.50;11.50;;;;;16.98;100.00;101682.53;5016576;28;45415;-78
2021/09/12 05:20:20;;;;;;;;;10.25;10.00;;;;;16.97;100.00;101675.50;5016466;28;45373;-79
2021/09/12 05:22:46;;;;;;;;;13.00;10.00;;;;;16.83;100.00;101647.72;5018134;28;45298;-78
2021/09/12 05:25:11;;;;;;;;;10.00;10.00;;;;;16.96;100.00;101671.13;5027052;28;45607;-73
2021/09/12 05:27:37;;;;;;;;;11.75;10.50;;;;;16.95;100.00;101674.69;5023406;28;45402;-77
2021/09/12 05:30:03;;;;;;;;;12.25;9.75;;;;;16.86;100.00;101664.38;5021726;28;45319;-78
2021/09/12 05:32:28;;;;;;;;;13.75;11.25;;;;;16.88;100.00;101679.25;5022841;28;46023;-78
2021/09/12 05:34:54;;;;;;;;;12.50;10.50;;;;;16.82;100.00;101674.16;5023752;28;46594;-78
2021/09/12 05:37:19;;;;;;;;;14.50;13.25;;;;;16.83;100.00;101686.41;5021657;28;45445;-78
2021/09/12 05:39:45;;;;;;;;;11.50;9.25;;;;;16.82;100.00;101687.34;5025033;28;45476;-76
2021/09/12 05:42:10;;;;;;;;;10.25;10.00;;;;;16.81;100.00;101683.81;5031797;28;45384;-78
2021/09/12 05:44:35;;;;;;;;;13.75;12.50;;;;;16.76;100.00;101679.59;5002970;28;45452;-76
2021/09/12 05:47:01;;;;;;;;;12.50;9.25;;;;;16.82;100.00;101689.97;5019662;28;45969;-78
2021/09/12 05:49:26;;;;;;;;;12.25;11.25;;;;;16.80;100.00;101682.09;5018847;28;45420;-77
2021/09/12 05:51:52;;;;;;;;;9.00;9.00;;;;;16.82;100.00;101684.69;5018896;28;45498;-78
2021/09/12 05:54:17;;;;;;;;;13.75;10.00;;;;;16.77;100.00;101679.53;5018671;28;47277;-78
2021/09/12 05:56:43;;;;;;;;;11.75;10.00;;;;;16.83;100.00;101686.41;5019482;28;45305;-78
2021/09/12 05:59:09;;;;;;;;;9.75;9.00;;;;;16.77;100.00;101678.69;5023924;28;45382;-73
2021/09/12 06:01:34;;;;;;;;;10.00;9.00;;;;;16.84;100.00;101696.94;5018392;28;45378;-72
2021/09/12 06:04:00;;;;;;;;;12.25;11.00;;;;;16.81;100.00;101689.09;5018141;28;45348;-71
2021/09/12 06:06:25;;;;;;;;;11.25;10.00;;;;;16.78;100.00;101686.53;5024729;28;45429;-73
2021/09/12 06:08:50;;;;;;;;;11.25;10.00;;;;;16.84;100.00;101694.28;5036817;28;45721;-72
2021/09/12 06:11:16;;;;;;;;;13.50;10.00;;;;;16.86;100.00;101691.63;5020541;28;45549;-77
2021/09/12 06:13:41;;;;;;;;;10.50;10.25;;;;;16.94;100.00;101704.59;5018896;28;47480;-74
2021/09/12 06:16:07;;;;;;;;;11.25;10.00;;;;;16.94;100.00;101704.59;5019372;28;45335;-76
2021/09/12 06:18:33;;;;;;;;;11.25;10.00;;;;;16.90;100.00;101692.41;5019157;28;45595;-77
2021/09/12 06:20:58;;;;;;;;;13.25;12.00;;;;;16.97;100.00;101704.53;5019183;28;45340;-77
2021/09/12 06:23:24;;;;;;;;;12.25;11.00;;;;;17.01;100.00;101707.06;5018743;28;47259;-77
2021/09/12 06:25:49;;;;;;;;;11.75;11.00;;;;;17.02;100.00;101711.44;5018830;28;45355;-76
2021/09/12 06:28:15;;;;;;;;;8.75;8.75;;;;;16.98;100.00;101701.00;5019303;28;45376;-77
2021/09/12 06:30:41;;;;;;;;;13.75;11.25;;;;;17.01;100.00;101708.84;5019115;28;45345;-75
2021/09/12 06:33:06;;;;;;;;;9.00;8.50;;;;;16.97;100.00;101694.84;5018638;28;45461;-76
2021/09/12 06:35:32;;;;;;;;;10.00;9.00;;;;;16.97;100.00;101692.19;5000886;28;45430;-75
2021/09/12 06:37:57;;;;;;;;;11.25;10.75;;;;;17.08;100.00;101710.41;5018370;28;45353;-75
2021/09/12 06:40:23;;;;;;;;;10.50;9.50;;;;;17.08;100.00;101699.84;5019073;28;45533;-76
2021/09/12 06:42:50;;;;;;;;;10.25;9.00;;;;;17.05;100.00;101692.88;5018337;28;46671;-75
2021/09/12 06:45:15;;;;;;;;;12.50;11.25;;;;;17.14;100.00;101708.47;5018460;28;45305;-77
2021/09/12 06:47:42;;;;;;;;;11.25;10.25;;;;;17.17;100.00;101696.97;5018705;28;45434;-76
2021/09/12 06:50:08;;;;;;;;;9.75;9.00;;;;;17.22;100.00;101699.50;5019202;28;45254;-76
2021/09/12 06:52:34;;;;;;;;;8.75;8.00;;;;;17.32;100.00;101707.13;5018218;28;45526;-78
2021/09/12 06:55:00;;;;;;;;;12.00;11.50;;;;;17.42;100.00;101705.09;5018644;28;45647;-76
2021/09/12 06:57:25;;;;;;;;;10.75;10.75;;;;;17.47;100.00;101695.28;5018933;28;45460;-77
2021/09/12 06:59:51;;;;;;;;;13.75;9.00;;;;;17.56;100.00;101692.38;5019011;28;45358;-77
2021/09/12 07:02:16;;;;;;;;;11.00;10.00;;;;;17.61;100.00;101693.13;5018148;28;46301;-77
2021/09/12 07:04:41;;;;;;;;;10.75;10.75;;;;;17.68;100.00;101684.16;5018641;28;45525;-74
2021/09/12 07:07:07;;;;;;;;;11.25;11.00;;;;;17.77;100.00;101680.38;5018729;28;45310;-76
2021/09/12 07:09:33;;;;;;;;;8.00;8.00;;;;;17.91;100.00;101686.13;5018809;28;45400;-77
2021/09/12 07:11:58;;;;;;;;;11.50;11.00;;;;;17.98;100.00;101685.03;5018293;28;45520;-75
2021/09/12 07:14:23;;;;;;;;;12.00;10.00;;;;;18.09;100.00;101687.34;5018072;28;45429;-77
2021/09/12 07:20:11;;;;;;;;;14.00;13.25;;;;;18.35;100.00;101692.72;5018324;28;45481;-74
2021/09/12 07:22:37;;;;;;;;;13.50;12.50;;;;;18.44;100.00;101690.69;5017864;28;45599;-74
2021/09/12 07:25:04;;;;;;;;;14.75;13.75;;;;;18.59;100.00;101698.16;5017900;28;45422;-77
2021/09/12 07:27:29;;;;;;;;;14.00;12.50;;;;;18.68;100.00;101695.22;5018253;28;45426;-72
2021/09/12 07:29:55;;;;;;;;;12.25;12.25;;;;;18.73;100.00;101665.97;5018116;28;45212;-72
2021/09/12 07:32:21;;;;;;;;;11.75;10.00;;;;;19.08;100.00;101689.47;5017918;28;45510;-69
2021/09/12 07:34:47;;;;;;;;;13.00;11.50;;;;;19.24;100.00;101680.09;5017823;28;45286;-72
2021/09/12 07:37:13;;;;;;;;;15.00;13.00;;;;;19.45;100.00;101675.78;5018345;28;45393;-71
2021/09/12 07:39:38;;;;;;;;;16.75;15.00;;;;;19.76;100.00;101691.47;5018309;28;45369;-70
2021/09/12 07:42:04;;;;;;;;;18.75;15.00;;;;;19.97;100.00;101689.78;5017772;28;46482;-74
2021/09/12 07:44:29;;;;;;;;;14.50;13.25;;;;;20.12;100.00;101688.31;5000043;28;45382;-74
2021/09/12 07:50:16;;;;;;;;;13.75;12.50;;;;;20.58;100.00;101697.13;5016915;28;45236;-77
2021/09/12 07:52:43;;;;;;;;;16.00;14.75;;;;;20.79;100.00;101696.25;5017687;28;46450;-75
2021/09/12 07:55:13;;;;;;;;;15.00;13.50;;;;;20.88;100.00;101693.25;5017703;28;45433;-76
2021/09/12 07:57:39;;;;;;;;;15.75;14.25;;;;;21.04;100.00;101693.44;5017176;28;45338;-71
2021/09/12 08:00:06;;;;;;;;;15.50;14.00;;;;;21.19;100.00;101699.91;5018026;28;45332;-74
2021/09/12 08:02:31;;;;;;;;;18.00;14.50;;;;;21.37;100.00;101696.47;5017292;28;45411;-72
2021/09/12 08:04:57;;;;;;;;;14.50;11.25;;;;;21.60;100.00;101695.47;5017515;28;45253;-73
2021/09/12 08:07:23;;;;;;;;;11.50;10.00;;;;;21.84;100.00;101696.13;5017409;28;45353;-73
2021/09/12 08:09:49;;;;;;;;;14.00;11.75;;;;;22.10;100.00;101692.28;5017477;28;45337;-72
2021/09/12 08:12:14;;;;;;;;;11.00;11.00;;;;;22.34;100.00;101679.63;5016965;28;45488;-72
2021/09/12 08:14:40;;;;;;;;;11.00;10.75;;;;;22.68;100.00;101689.50;5017190;28;45358;-72
2021/09/12 08:20:26;;;;;;;;;9.75;8.50;;;;;23.11;100.00;101683.75;5017456;28;45228;-71
2021/09/12 08:22:52;;;;;;;;;10.00;9.00;;;;;23.37;100.00;101679.72;5016905;28;46418;-71
2021/09/12 08:25:17;;;;;;;;;11.00;10.25;;;;;23.58;100.00;101682.22;5016901;28;45334;-73
2021/09/12 08:27:43;;;;;;;;;10.75;10.25;;;;;23.82;100.00;101686.25;5017221;28;45427;-68
2021/09/12 08:30:08;;;;;;;;;13.50;10.25;;;;;24.08;100.00;101692.81;5017391;28;45396;-67
2021/09/12 08:32:34;;;;;;;;;10.25;7.75;;;;;24.34;100.00;101696.72;5016381;28;47329;-67
2021/09/12 08:34:59;;;;;;;;;8.50;8.50;;;;;24.63;100.00;101695.03;5017193;28;45419;-68
2021/09/12 08:37:24;;;;;;;;;8.25;8.25;;;;;24.95;100.00;101695.84;5017247;28;45333;-67
2021/09/12 08:39:50;;;;;;;;;7.50;6.75;;;;;25.11;100.00;101693.97;5017222;28;45337;-68
2021/09/12 08:42:18;;;;;;;;;6.50;6.00;;;;;25.29;100.00;101698.22;5016685;28;45365;-68
2021/09/12 08:44:46;;;;;;;;;8.00;8.00;;;;;25.46;100.00;101691.84;5016671;28;45246;-69
2021/09/12 08:50:34;;;;;;;;;4.75;3.00;;;;;25.83;100.00;101695.81;5016869;28;45353;-67
2021/09/12 08:52:59;;;;;;;;;4.50;3.75;;;;;26.04;100.00;101684.72;5016295;28;45300;-68
2021/09/12 08:55:24;;;;;;;;;4.00;3.50;;;;;26.36;100.00;101680.84;5016947;28;45396;-67
2021/09/12 08:57:52;;;;;;;;;5.50;3.25;;;;;26.64;100.00;101684.34;5016771;28;45374;-68
2021/09/12 09:00:24;;;;;;;;;5.00;5.00;;;;;26.81;100.00;101682.28;5017259;28;45539;-68
2021/09/12 09:02:56;;;;;;;;;7.00;5.75;;;;;27.08;100.00;101684.94;5019609;28;46579;-68
2021/09/12 09:05:47;;;;;;;;;6.25;5.00;;;;;27.42;100.00;101690.66;5019885;28;45369;-68
2021/09/12 09:08:16;;;;;;;;;6.00;5.50;;;;;27.78;100.00;101676.47;5016415;28;45681;-67
2021/09/12 09:10:44;;;;;;;;;9.00;6.00;;;;;28.30;100.00;101672.72;5020195;28;45552;-67
2021/09/12 09:13:30;;;;;;;;;3.75;3.75;;;;;28.94;100.00;101682.19;5019595;28;47549;-67
2021/09/12 09:15:59;;;;;;;;;4.75;4.50;;;;;29.40;100.00;101670.53;5019720;28;45434;-69
2021/09/12 09:18:36;;;;;;;;;3.50;2.75;;;;;29.95;100.00;101676.09;5019955;28;45394;-68
2021/09/12 09:21:27;;;;;;;;;2.25;1.75;;;;;30.64;100.00;101680.25;5019931;28;45351;-67
2021/09/12 09:24:15;;;;;;;;;2.00;2.00;;;;;31.40;95.22;101686.34;5019564;28;46312;-68
2021/09/12 09:27:01;;;;;;;;;2.25;1.75;;;;;32.19;91.44;101686.53;5020034;28;45546;-67
2021/09/12 09:29:32;;;;;;;;;2.00;1.00;;;;;32.96;87.57;101677.63;5020064;28;45382;-67
2021/09/12 09:32:07;;;;;;;;;2.00;1.25;;;;;33.39;83.61;101690.69;5019768;28;45298;-67
2021/09/12 09:34:34;;;;;;;;;1.50;1.50;;;;;33.56;82.25;101686.38;5019476;28;46173;-68
2021/09/12 09:37:14;;;;;;;;;2.00;2.00;;;;;33.48;81.56;101678.97;5019549;28;45386;-67
2021/09/12 09:39:41;;;;;;;;;1.00;1.00;;;;;33.19;80.79;101682.59;5019927;28;45291;-67
2021/09/12 09:42:26;;;;;;;;;2.00;1.25;;;;;32.83;80.59;101684.22;5019814;28;45295;-67
2021/09/12 09:45:07;;;;;;;;;2.00;1.25;;;;;32.49;81.51;101677.50;5019372;28;46596;-67
2021/09/12 09:47:33;;;;;;;;;3.50;2.00;;;;;32.25;81.05;101685.97;5019323;28;45563;-66
2021/09/12 09:50:18;;;;;;;;;2.25;2.25;;;;;31.82;80.04;101656.56;5019734;28;45375;-66
2021/09/12 09:52:47;;;;;;;;;1.25;1.25;;;;;31.77;79.97;101680.44;5019699;28;45557;-66
2021/09/12 09:55:17;;;;;;;;;2.00;2.00;;;;;31.65;81.16;101680.47;5019020;28;45528;-68
2021/09/12 09:57:47;;;;;;;;;2.50;2.00;;;;;31.62;80.04;101666.41;5019171;28;45318;-67
2021/09/12 10:00:14;;;;;;;;;3.00;2.00;;;;;31.89;79.07;101671.22;5019567;28;45393;-67
2021/09/12 10:02:40;;;;;;;;;2.00;1.00;;;;;32.45;78.70;101674.22;5019630;28;45372;-67
2021/09/12 10:05:09;;;;;;;;;3.00;2.75;;;;;33.10;76.18;101678.06;5019086;28;46681;-67
2021/09/12 10:07:36;;;;;;;;;2.75;2.50;;;;;33.62;74.82;101674.94;5019419;28;45330;-67
2021/09/12 10:10:04;;;;;;;;;3.00;2.00;;;;;33.91;73.93;101667.53;5019610;28;45280;-67
2021/09/12 10:12:32;;;;;;;;;3.00;3.00;;;;;33.95;71.38;101657.25;5018599;28;45307;-67
2021/09/12 10:15:02;;;;;;;;;3.00;3.00;;;;;34.21;71.61;101660.94;5019288;28;46063;-68
2021/09/12 10:17:30;;;;;;;;;3.00;2.00;;;;;34.70;71.61;101658.72;5019307;28;45529;-68
2021/09/12 10:20:10;;;;;;;;;3.00;3.00;;;;;35.33;70.71;101660.41;5019395;28;45342;-67
2021/09/12 10:22:56;;;;;;;;;2.00;1.00;;;;;35.72;68.15;101660.75;5019262;28;45231;-68
2021/09/12 10:25:23;;;;;;;;;3.25;2.75;;;;;36.19;67.89;101661.97;4922504;28;46339;-69
2021/09/12 10:27:57;;;;;;;;;3.00;3.00;;;;;36.97;66.44;101647.09;4938004;28;45595;-66
2021/09/12 10:30:37;;;;;;;;;2.25;2.25;;;;;37.71;63.90;101651.31;4938672;28;45396;-67
2021/09/12 10:33:05;;;;;;;;;5.75;5.00;;;;;38.15;62.46;101656.25;4938614;28;45587;-66
2021/09/12 10:35:49;;;;;;;;;59.50;47.50;;;;;38.74;62.94;101643.75;4938006;28;47092;-68
2021/09/12 10:38:33;;;;;;;;;10.00;8.75;;;;;39.78;59.90;101641.91;4938429;28;45332;-68
2021/09/12 10:41:01;;;;;;;;;3.25;2.25;;;;;40.83;57.11;101647.69;4938188;28;45402;-68
2021/09/12 10:43:26;;;;;;;;;47.25;39.00;;;;;41.60;55.79;101644.81;4938333;28;45425;-70
2021/09/12 10:49:13;;;;;;;;;2.00;1.50;;;;;43.22;49.85;101638.31;4938075;28;45448;-69
2021/09/12 10:51:40;;;;;;;;;2.25;2.00;;;;;43.69;47.67;101639.91;4938136;28;45370;-68
2021/09/12 10:54:06;;;;;;;;;2.00;2.00;;;;;44.01;46.92;101643.53;4938002;28;45462;-67
2021/09/12 10:56:33;;;;;;;;;17.75;17.75;;;;;44.16;47.27;101644.13;4937927;28;45513;-66
2021/09/12 10:59:01;;;;;;;;;3.25;3.25;;;;;44.29;44.10;101644.00;4937846;28;45704;-65
2021/09/12 11:04:48;;;;;;;;;3.00;3.00;;;;;44.97;44.05;101632.25;4998538;28;45394;-69
2021/09/12 11:07:14;;;;;;;;;8.00;6.50;;;;;45.59;42.88;101640.47;4998593;28;46352;-69
2021/09/12 11:09:39;;;;;;;;;4.00;3.00;;;;;46.12;37.78;101631.50;4998618;28;45474;-65
2021/09/12 11:12:06;;;;;;;;;3.00;3.00;;;;;46.46;40.28;101640.97;4998407;28;45405;-65
2021/09/12 11:14:34;;;;;;;;;2.75;1.50;;;;;46.63;36.56;101637.28;4998690;28;45463;-65
2021/09/12 11:20:22;;;;;;;;;2.00;2.00;;;;;45.23;37.35;101625.59;4998359;28;45366;-65
2021/09/12 11:22:49;;;;;;;;;2.75;2.75;;;;;45.23;38.38;101633.03;4998158;28;45368;-65
2021/09/12 11:25:19;;;;;;;;;5.50;5.50;;;;;45.32;38.09;101621.50;4998563;28;45328;-67
2021/09/12 11:27:44;;;;;;;;;3.00;3.00;;;;;45.34;37.73;101619.34;4980323;28;48388;-68
2021/09/12 11:30:11;;;;;;;;;6.00;5.00;;;;;45.25;37.96;101619.88;4997984;28;45309;-67